Time,TemperatureF,DewpointF,PressureIn,WindDirection,WindDirectionDegrees,WindSpeedMPH,WindSpeedGustMPH,Humidity,HourlyPrecipIn,Conditions,Clouds,dailyrainin,SoftwareType,DateUTC
2013-01-03 00:14:00,64.8,61.5,29.99,WSW,248,0.0,0.0,89,0.00,,,0.00,WeatherDisplay:10.37,2013-01-03 05:14:00,
2013-01-03 00:29:00,64.2,61.2,29.99,WSW,248,0.0,0.0,90,0.00,,,0.00,WeatherDisplay:10.37,2013-01-03 05:29:00,
2013-01-03 00:44:00,63.5,60.5,29.99,WSW,248,0.0,0.0,90,0.00,,,0.00,WeatherDisplay:10.37,2013-01-03 05:44:00,
2013-01-03 00:59:00,63.4,60.7,29.99,WSW,248,0.0,0.0,91,0.00,,,0.00,WeatherDisplay:10.37,2013-01-03 05:59:00,
2013-01-03 01:14:00,63.2,60.8,29.99,WSW,248,0.0,0.0,92,0.00,,,0.00,WeatherDisplay:10.37,2013-01-03 06:14:00,
2013-01-03 01:29:00,62.7,60.4,29.99,WSW,248,0.0,0.0,92,0.00,,,0.00,WeatherDisplay:10.37,2013-01-03 06:29:00,
2013-01-03 01:44:00,62.4,60.0,29.99,WSW,248,0.0,0.0,92,0.00,,,0.00,WeatherDisplay:10.37,2013-01-03 06:44:00,
2013-01-03 01:59:00,62.0,59.6,29.99,WSW,248,0.0,0.0,92,0.00,,,0.00,WeatherDisplay:10.37,2013-01-03 06:59:00,
2013-01-03 02:14:00,61.5,59.2,29.99,WSW,248,0.0,0.0,92,0.00,,,0.00,WeatherDisplay:10.37,2013-01-03 07:14:00,
2013-01-03 02:29:00,61.3,59.3,29.98,WSW,248,0.0,0.0,93,0.00,,,0.00,WeatherDisplay:10.37,2013-01-03 07:29:00,
2013-01-03 02:45:00,61.0,59.0,29.99,WSW,248,0.0,0.0,93,0.00,,,0.00,WeatherDisplay:10.37,2013-01-03 07:45:00,
2013-01-03 03:00:00,60.5,58.5,29.99,WSW,248,0.0,0.0,93,0.00,,,0.00,WeatherDisplay:10.37,2013-01-03 08:00:00,
2013-01-03 03:15:00,61.0,59.3,29.99,WSW,248,0.0,0.0,94,0.00,,,0.00,WeatherDisplay:10.37,2013-01-03 08:15:00,
2013-01-03 03:29:00,61.5,60.1,29.99,WSW,248,0.0,0.0,95,0.00,,,0.00,WeatherDisplay:10.37,2013-01-03 08:29:00,
2013-01-03 03:44:00,62.0,60.5,29.98,WSW,248,0.0,0.0,95,0.00,,,0.00,WeatherDisplay:10.37,2013-01-03 08:44:00,
2013-01-03 03:59:00,62.1,60.7,29.98,WSW,248,0.0,0.0,95,0.00,,,0.00,WeatherDisplay:10.37,2013-01-03 08:59:00,
2013-01-03 04:15:00,62.6,61.1,29.98,WSW,248,0.0,0.0,95,0.00,,,0.00,WeatherDisplay:10.37,2013-01-03 09:15:00,
2013-01-03 04:29:00,62.9,61.4,29.98,WSW,248,0.0,0.0,95,0.00,,,0.00,WeatherDisplay:10.37,2013-01-03 09:29:00,
2013-01-03 04:44:00,63.2,61.7,29.98,WSW,248,0.0,0.0,95,0.00,,,0.00,WeatherDisplay:10.37,2013-01-03 09:44:00,
2013-01-03 04:59:00,63.9,62.7,29.98,WSW,248,0.0,0.0,96,0.00,,,0.00,WeatherDisplay:10.37,2013-01-03 09:59:00,
2013-01-03 05:14:00,64.0,62.9,29.98,WSW,248,0.0,0.0,96,0.00,,,0.00,WeatherDisplay:10.37,2013-01-03 10:14:00,
2013-01-03 05:29:00,64.7,63.5,29.98,WSW,248,0.0,0.0,96,0.00,,,0.00,WeatherDisplay:10.37,2013-01-03 10:29:00,
2013-01-03 05:44:00,64.7,63.5,29.99,WSW,250,0.0,0.0,96,0.00,,,0.00,WeatherDisplay:10.37,2013-01-03 10:44:00,
2013-01-03 05:59:00,64.7,63.5,29.99,WSW,251,0.0,0.0,96,0.00,,,0.00,WeatherDisplay:10.37,2013-01-03 10:59:00,
2013-01-03 06:14:00,64.3,63.4,30.00,WSW,251,0.0,0.0,97,0.00,,,0.00,WeatherDisplay:10.37,2013-01-03 11:14:00,
2013-01-03 06:29:00,64.3,63.4,30.00,WSW,251,0.0,0.0,97,0.00,,,0.00,WeatherDisplay:10.37,2013-01-03 11:29:00,
2013-01-03 06:44:00,64.3,63.4,30.01,WNW,289,0.0,3.0,97,0.00,,,0.00,WeatherDisplay:10.37,2013-01-03 11:44:00,
2013-01-03 06:59:00,64.2,63.4,30.01,WNW,294,0.0,0.0,97,0.00,CLR,,0.00,WeatherDisplay:10.37,2013-01-03 11:59:00,
2013-01-03 07:14:00,64.2,63.3,30.01,WNW,302,0.0,0.0,97,0.00,CLR,,0.00,WeatherDisplay:10.37,2013-01-03 12:14:00,
2013-01-03 07:29:00,63.9,63.0,30.02,WNW,302,0.0,0.0,97,0.00,CLR,,0.00,WeatherDisplay:10.37,2013-01-03 12:29:00,
2013-01-03 07:44:00,63.7,63.1,30.02,WNW,302,0.0,0.0,98,0.00,CLR,,0.00,WeatherDisplay:10.37,2013-01-03 12:44:00,
2013-01-03 07:59:00,63.7,63.1,30.02,WNW,302,0.0,0.0,98,0.00,CLR,,0.00,WeatherDisplay:10.37,2013-01-03 12:59:00,
2013-01-03 08:14:00,63.7,63.1,30.03,WNW,302,0.0,0.0,98,0.00,CLR,,0.00,WeatherDisplay:10.37,2013-01-03 13:14:00,
2013-01-03 08:29:00,63.9,63.3,30.04,WNW,302,0.0,0.0,98,0.00,CLR,,0.00,WeatherDisplay:10.37,2013-01-03 13:29:00,
2013-01-03 08:44:00,63.7,63.1,30.04,WNW,302,0.0,0.0,98,0.00,CLR,,0.00,WeatherDisplay:10.37,2013-01-03 13:44:00,
2013-01-03 08:59:00,63.9,63.3,30.05,WNW,300,0.0,3.0,98,0.00,CLR,,0.00,WeatherDisplay:10.37,2013-01-03 13:59:00,
2013-01-03 09:14:00,64.0,63.4,30.05,WNW,287,0.0,0.0,98,0.00,CLR,,0.00,WeatherDisplay:10.37,2013-01-03 14:14:00,
2013-01-03 09:29:00,64.2,63.6,30.05,WNW,287,0.0,0.0,98,0.00,CLR,,0.00,WeatherDisplay:10.37,2013-01-03 14:29:00,
2013-01-03 09:44:00,64.5,63.9,30.04,WNW,287,0.0,0.0,98,0.00,CLR,,0.00,WeatherDisplay:10.37,2013-01-03 14:44:00,
2013-01-03 09:59:00,64.8,63.9,30.05,WNW,287,0.0,0.0,97,0.00,CLR,,0.00,WeatherDisplay:10.37,2013-01-03 14:59:00,
2013-01-03 10:14:00,65.3,64.4,30.06,WNW,287,0.0,0.0,97,0.00,CLR,,0.00,WeatherDisplay:10.37,2013-01-03 15:14:00,
2013-01-03 10:29:00,65.4,64.2,30.05,WNW,287,0.0,0.0,96,0.00,CLR,,0.00,WeatherDisplay:10.37,2013-01-03 15:29:00,
2013-01-03 10:44:00,66.3,64.8,30.05,WNW,287,0.0,0.0,95,0.00,CLR,,0.00,WeatherDisplay:10.37,2013-01-03 15:44:00,
2013-01-03 10:59:00,67.4,65.0,30.05,WNW,287,0.0,0.0,92,0.00,CLR,,0.00,WeatherDisplay:10.37,2013-01-03 15:59:00,
2013-01-03 11:14:00,68.6,64.6,30.05,WNW,287,0.0,0.0,87,0.00,CLR,,0.00,WeatherDisplay:10.37,2013-01-03 16:14:00,
2013-01-03 11:29:00,69.1,64.1,30.05,WNW,287,0.0,0.0,84,0.00,CLR,,0.00,WeatherDisplay:10.37,2013-01-03 16:29:00,
2013-01-03 11:44:00,69.6,63.9,30.04,WNW,287,0.0,0.0,82,0.00,CLR,,0.00,WeatherDisplay:10.37,2013-01-03 16:44:00,
2013-01-03 11:59:00,70.3,63.8,30.04,West,275,0.0,0.0,80,0.00,CLR,,0.00,WeatherDisplay:10.37,2013-01-03 16:59:00,
2013-01-03 12:14:00,73.1,63.9,30.02,West,275,0.0,0.0,73,0.00,CLR,,0.00,WeatherDisplay:10.37,2013-01-03 17:14:00,
2013-01-03 12:30:00,73.3,63.8,30.01,West,272,0.0,0.0,72,0.00,CLR,,0.00,WeatherDisplay:10.37,2013-01-03 17:30:00,
2013-01-03 12:44:00,73.7,64.1,30.01,West,272,0.0,0.0,72,0.00,CLR,,0.00,WeatherDisplay:10.37,2013-01-03 17:44:00,
2013-01-03 12:59:00,72.7,63.6,30.01,West,271,0.0,0.0,73,0.00,CLR,,0.00,WeatherDisplay:10.37,2013-01-03 17:59:00,
2013-01-03 13:14:00,73.7,64.1,29.99,SW,232,0.0,0.0,72,0.00,CLR,,0.00,WeatherDisplay:10.37,2013-01-03 18:14:00,
2013-01-03 13:29:00,74.7,63.9,29.99,SSE,168,0.0,0.0,69,0.00,CLR,,0.00,WeatherDisplay:10.37,2013-01-03 18:29:00,
2013-01-03 13:44:00,76.1,63.9,29.98,South,175,0.0,0.0,66,0.00,CLR,,0.00,WeatherDisplay:10.37,2013-01-03 18:44:00,
2013-01-03 13:59:00,76.0,64.3,29.99,SSW,211,0.0,0.0,67,0.00,,,0.00,WeatherDisplay:10.37,2013-01-03 18:59:00,
2013-01-03 14:14:00,74.5,64.1,29.99,WNW,303,0.0,1.0,70,0.00,,,0.00,WeatherDisplay:10.37,2013-01-03 19:14:00,
2013-01-03 14:59:00,73.0,63.8,30.00,NW,326,0.0,1.0,73,0.00,,,0.00,WeatherDisplay:10.37,2013-01-03 19:59:00,
2013-01-03 15:14:00,71.8,63.5,30.00,NNE,13,0.0,7.0,75,0.00,,,0.00,WeatherDisplay:10.37,2013-01-03 20:14:00,
2013-01-03 15:29:00,71.3,63.0,30.01,North,359,0.0,4.0,75,0.00,,,0.00,WeatherDisplay:10.37,2013-01-03 20:29:00,
2013-01-03 15:44:00,70.4,62.8,30.01,NNW,342,0.0,5.0,77,0.00,,,0.00,WeatherDisplay:10.37,2013-01-03 20:44:00,
2013-01-03 15:59:00,70.3,62.7,30.01,North,351,0.0,0.0,77,0.00,CLR,,0.00,WeatherDisplay:10.37,2013-01-03 20:59:00,
2013-01-03 16:14:00,69.6,62.8,30.02,NNW,334,0.0,5.0,79,0.00,CLR,,0.00,WeatherDisplay:10.37,2013-01-03 21:14:00,
2013-01-03 16:29:00,69.1,62.3,30.03,NNW,338,0.0,3.0,79,0.00,CLR,,0.00,WeatherDisplay:10.37,2013-01-03 21:29:00,
2013-01-03 16:45:00,68.9,62.5,30.03,NNE,23,0.0,5.0,80,0.00,CLR,,0.00,WeatherDisplay:10.37,2013-01-03 21:45:00,
2013-01-03 16:59:00,67.6,61.6,30.03,North,8,1.0,9.0,81,0.00,CLR,,0.00,WeatherDisplay:10.37,2013-01-03 21:59:00,
2013-01-03 17:14:00,66.3,60.6,30.04,North,1,1.0,9.0,82,0.00,CLR,,0.00,WeatherDisplay:10.37,2013-01-03 22:14:00,
2013-01-03 17:29:00,65.5,60.2,30.04,North,352,2.0,9.0,83,0.00,CLR,,0.00,WeatherDisplay:10.37,2013-01-03 22:29:00,
2013-01-03 17:44:00,64.8,60.2,30.05,North,2,2.0,10.0,85,0.00,CLR,,0.00,WeatherDisplay:10.37,2013-01-03 22:44:00,
2013-01-03 17:59:00,63.8,59.2,30.05,NNW,332,2.0,10.0,85,0.00,CLR,,0.00,WeatherDisplay:10.37,2013-01-03 22:59:00,
2013-01-03 18:14:00,62.7,58.1,30.06,North,358,1.0,15.0,85,0.00,CLR,,0.00,WeatherDisplay:10.37,2013-01-03 23:14:00,
2013-01-03 18:29:00,62.1,57.5,30.07,North,353,3.0,14.0,85,0.00,CLR,,0.00,WeatherDisplay:10.37,2013-01-03 23:29:00,
2013-01-03 18:44:00,61.5,56.6,30.07,NNW,330,2.0,10.0,84,0.00,CLR,,0.00,WeatherDisplay:10.37,2013-01-03 23:44:00,
2013-01-03 18:59:00,60.9,55.7,30.08,NW,323,2.0,10.0,83,0.00,CLR,,0.00,WeatherDisplay:10.37,2013-01-03 23:59:00,
2013-01-03 19:14:00,60.5,55.3,30.08,NNW,342,2.0,10.0,83,0.00,CLR,,0.00,WeatherDisplay:10.37,2013-01-04 00:14:00,
2013-01-03 19:29:00,60.4,55.5,30.10,NNW,338,0.0,12.0,84,0.00,CLR,,0.00,WeatherDisplay:10.37,2013-01-04 00:29:00,
2013-01-03 19:44:00,60.2,55.6,30.10,NNW,342,1.0,12.0,85,0.00,CLR,,0.00,WeatherDisplay:10.37,2013-01-04 00:44:00,
2013-01-03 19:59:00,59.5,55.6,30.10,NNW,341,0.0,8.0,87,0.00,CLR,,0.00,WeatherDisplay:10.37,2013-01-04 00:59:00,
2013-01-03 20:14:00,58.9,55.1,30.10,NW,316,3.0,8.0,87,0.00,CLR,,0.00,WeatherDisplay:10.37,2013-01-04 01:14:00,
2013-01-03 20:29:00,58.9,54.4,30.11,NNW,335,1.0,9.0,85,0.00,CLR,,0.00,WeatherDisplay:10.37,2013-01-04 01:29:00,
2013-01-03 20:44:00,58.9,54.7,30.11,NW,307,0.0,7.0,86,0.00,CLR,,0.00,WeatherDisplay:10.37,2013-01-04 01:44:00,
2013-01-03 20:59:00,58.7,54.8,30.11,NNW,340,0.0,0.0,87,0.00,CLR,,0.00,WeatherDisplay:10.37,2013-01-04 01:59:00,
2013-01-03 21:14:00,58.6,55.0,30.12,NNW,340,0.0,0.0,88,0.00,CLR,,0.00,WeatherDisplay:10.37,2013-01-04 02:14:00,
2013-01-03 21:29:00,58.4,55.2,30.12,NNW,340,0.0,0.0,89,0.00,CLR,,0.00,WeatherDisplay:10.37,2013-01-04 02:29:00,
2013-01-03 21:44:00,58.3,55.4,30.12,NW,314,0.0,6.0,90,0.00,CLR,,0.00,WeatherDisplay:10.37,2013-01-04 02:44:00,
2013-01-03 21:59:00,58.1,55.2,30.13,NW,315,0.0,7.0,90,0.00,CLR,,0.00,WeatherDisplay:10.37,2013-01-04 02:59:00,
2013-01-03 22:14:00,58.4,55.8,30.13,NW,314,0.0,7.0,91,0.00,CLR,,0.00,WeatherDisplay:10.37,2013-01-04 03:14:00,
2013-01-03 22:29:00,58.6,56.0,30.12,NNW,338,0.0,4.0,91,0.00,CLR,,0.00,WeatherDisplay:10.37,2013-01-04 03:29:00,
2013-01-03 22:44:00,58.6,56.3,30.12,NNW,338,0.0,4.0,92,0.01,CLR,,0.01,WeatherDisplay:10.37,2013-01-04 03:44:00,
2013-01-03 22:59:00,58.6,56.3,30.12,NNE,13,0.0,5.0,92,0.00,,,0.01,WeatherDisplay:10.37,2013-01-04 03:59:00,
2013-01-03 23:14:00,58.6,56.6,30.12,NW,315,0.0,8.0,93,0.00,,,0.01,WeatherDisplay:10.37,2013-01-04 04:14:00,
2013-01-03 23:29:00,58.7,57.0,30.12,NW,316,0.0,7.0,94,0.01,,,0.02,WeatherDisplay:10.37,2013-01-04 04:29:00,
2013-01-03 23:44:00,58.7,57.0,30.12,NW,322,0.0,6.0,94,0.01,RA,,0.03,WeatherDisplay:10.37,2013-01-04 04:44:00,
2013-01-03 23:59:00,58.7,57.3,30.10,NNE,21,0.0,5.0,95,0.01,RA,,0.00,WeatherDisplay:10.37,2013-01-04 04:59:00,